Time;durP1;ratioP1;P1;durP2;ratioP2;P2;SDS_P1;SDS_P2;PMS_P1;PMS_P2;Temp;Humidity;BMP_temperature;BMP_pressure;BME280_temperature;BME280_humidity;BME280_pressure;Samples;Min_cycle;Max_cycle;Signal;HPM_P1;HPM_P2
2024/01/22 00:00:13;;;;;;;19.92;8.20;;;;;;;;;;5032245;28;20469;-57
2024/01/22 00:02:39;;;;;;;20.40;8.35;;;;;;;;;;5032917;28;20120;-57
2024/01/22 00:05:04;;;;;;;17.83;7.85;;;;;;;;;;5029330;28;20017;-58
2024/01/22 00:07:31;;;;;;;20.03;8.47;;;;;;;;;;5036821;28;20091;-57
2024/01/22 00:09:56;;;;;;;18.23;8.32;;;;;;;;;;5032072;28;20080;-57
2024/01/22 00:12:21;;;;;;;18.38;8.13;;;;;;;;;;5031134;28;20410;-56
2024/01/22 00:14:47;;;;;;;19.10;7.97;;;;;;;;;;5024609;28;20088;-57
2024/01/22 00:17:12;;;;;;;21.45;8.35;;;;;;;;;;5031336;28;20056;-57
2024/01/22 00:19:37;;;;;;;20.37;8.03;;;;;;;;;;5031991;28;20374;-56
2024/01/22 00:22:02;;;;;;;16.27;8.07;;;;;;;;;;5031879;28;20026;-57
2024/01/22 00:24:28;;;;;;;20.13;8.60;;;;;;;;;;5028561;28;20176;-59
2024/01/22 00:26:53;;;;;;;22.58;9.07;;;;;;;;;;5031947;28;20032;-57
2024/01/22 00:29:18;;;;;;;20.17;8.35;;;;;;;;;;5028741;28;20033;-57
2024/01/22 00:31:43;;;;;;;21.27;8.55;;;;;;;;;;5032996;28;20103;-57
2024/01/22 00:34:08;;;;;;;20.25;8.52;;;;;;;;;;5023831;28;20482;-57
2024/01/22 00:36:33;;;;;;;21.33;9.17;;;;;;;;;;5029655;28;20029;-57
2024/01/22 00:38:58;;;;;;;17.07;7.37;;;;;;;;;;5025723;28;20029;-58
2024/01/22 00:41:24;;;;;;;20.27;8.77;;;;;;;;;;5039856;28;20022;-58
2024/01/22 00:43:49;;;;;;;21.20;8.43;;;;;;;;;;5036529;28;20030;-57
2024/01/22 00:46:14;;;;;;;19.43;8.27;;;;;;;;;;5026956;28;20054;-57
2024/01/22 00:48:39;;;;;;;21.20;9.03;;;;;;;;;;5028651;28;20025;-57
2024/01/22 00:51:04;;;;;;;18.50;7.97;;;;;;;;;;5023284;28;20029;-57
2024/01/22 00:53:30;;;;;;;19.23;7.95;;;;;;;;;;5035292;28;20029;-57
2024/01/22 00:55:55;;;;;;;18.33;8.10;;;;;;;;;;5035990;28;20095;-57
2024/01/22 00:58:20;;;;;;;18.90;7.93;;;;;;;;;;5040141;28;20048;-58
2024/01/22 01:00:45;;;;;;;18.63;7.95;;;;;;;;;;5041410;28;20025;-58
2024/01/22 01:03:10;;;;;;;17.65;7.93;;;;;;;;;;5038765;28;20021;-56
2024/01/22 01:05:35;;;;;;;20.05;7.47;;;;;;;;;;5032309;28;20054;-58
2024/01/22 01:08:01;;;;;;;18.02;7.75;;;;;;;;;;5027686;28;20037;-57
2024/01/22 01:10:26;;;;;;;17.33;7.40;;;;;;;;;;5032000;28;20430;-59
2024/01/22 01:12:51;;;;;;;19.65;6.93;;;;;;;;;;5039014;28;20026;-58
2024/01/22 01:15:17;;;;;;;17.52;7.85;;;;;;;;;;5016459;28;20056;-57
2024/01/22 01:17:42;;;;;;;15.07;6.60;;;;;;;;;;5033285;28;20017;-57
2024/01/22 01:20:07;;;;;;;18.40;7.80;;;;;;;;;;5037769;28;20017;-58
2024/01/22 01:22:32;;;;;;;17.67;6.57;;;;;;;;;;5032835;28;20444;-56
2024/01/22 01:24:57;;;;;;;17.85;7.53;;;;;;;;;;5024912;28;20045;-57
2024/01/22 01:27:23;;;;;;;14.82;7.35;;;;;;;;;;5028554;28;20046;-57
2024/01/22 01:29:48;;;;;;;16.80;7.13;;;;;;;;;;5027956;28;20508;-57
2024/01/22 01:32:13;;;;;;;16.47;6.67;;;;;;;;;;5015654;28;20446;-57
2024/01/22 01:34:38;;;;;;;16.27;6.97;;;;;;;;;;5028855;28;20022;-56
2024/01/22 01:37:04;;;;;;;17.20;6.67;;;;;;;;;;5033550;28;20397;-58
2024/01/22 01:39:29;;;;;;;17.92;7.57;;;;;;;;;;5015869;28;20072;-57
2024/01/22 01:41:54;;;;;;;16.67;6.80;;;;;;;;;;5024725;28;20032;-57
2024/01/22 01:44:19;;;;;;;17.73;7.15;;;;;;;;;;5038645;28;20096;-58
2024/01/22 01:46:45;;;;;;;17.35;7.00;;;;;;;;;;5036988;28;20041;-58
2024/01/22 01:49:10;;;;;;;14.17;6.30;;;;;;;;;;5040579;28;20033;-58
2024/01/22 01:51:36;;;;;;;18.27;7.43;;;;;;;;;;5035331;28;20464;-58
2024/01/22 01:54:01;;;;;;;18.73;7.70;;;;;;;;;;5029619;28;20043;-56
2024/01/22 01:56:27;;;;;;;16.25;6.95;;;;;;;;;;5017036;28;20481;-57
2024/01/22 01:58:52;;;;;;;16.93;7.63;;;;;;;;;;5012191;28;20030;-58
2024/01/22 02:01:17;;;;;;;16.43;7.13;;;;;;;;;;5025576;28;20043;-57
2024/01/22 02:03:42;;;;;;;17.83;7.10;;;;;;;;;;5027922;28;20028;-57
2024/01/22 02:06:07;;;;;;;17.17;7.15;;;;;;;;;;5031618;28;20514;-56
2024/01/22 02:08:32;;;;;;;15.13;6.78;;;;;;;;;;5033656;28;20085;-57
2024/01/22 02:10:58;;;;;;;15.73;6.72;;;;;;;;;;5028914;28;20030;-56
2024/01/22 02:13:25;;;;;;;15.67;7.50;;;;;;;;;;5024382;28;20029;-56
2024/01/22 02:15:50;;;;;;;16.05;7.20;;;;;;;;;;5022634;28;20548;-56
2024/01/22 02:18:16;;;;;;;14.73;6.73;;;;;;;;;;5031885;28;20060;-57
2024/01/22 02:20:41;;;;;;;16.87;6.83;;;;;;;;;;5025816;28;20017;-57
2024/01/22 02:23:06;;;;;;;15.10;7.32;;;;;;;;;;5029440;28;20033;-56
2024/01/22 02:25:32;;;;;;;15.63;6.72;;;;;;;;;;5011608;28;20028;-56
2024/01/22 02:27:57;;;;;;;15.88;6.85;;;;;;;;;;5016023;28;20183;-57
2024/01/22 02:30:22;;;;;;;13.77;6.38;;;;;;;;;;5027922;28;20025;-56
2024/01/22 02:32:48;;;;;;;15.70;6.53;;;;;;;;;;5035273;28;20037;-59
2024/01/22 02:35:13;;;;;;;15.75;6.75;;;;;;;;;;5041242;28;20056;-59
2024/01/22 02:37:39;;;;;;;16.30;6.50;;;;;;;;;;5037573;28;20036;-58
2024/01/22 02:40:04;;;;;;;15.20;6.07;;;;;;;;;;5040145;28;20030;-58
2024/01/22 02:42:29;;;;;;;16.52;6.53;;;;;;;;;;5029101;28;20026;-56
2024/01/22 02:44:55;;;;;;;13.93;6.30;;;;;;;;;;5033749;28;20516;-58
2024/01/22 02:47:20;;;;;;;12.77;5.88;;;;;;;;;;5031800;28;20029;-56
2024/01/22 02:49:45;;;;;;;13.20;6.03;;;;;;;;;;5023759;28;20038;-57
2024/01/22 02:52:10;;;;;;;15.55;6.70;;;;;;;;;;5034481;28;20025;-58
2024/01/22 02:54:36;;;;;;;13.93;6.32;;;;;;;;;;5015541;28;20022;-58
2024/01/22 02:57:02;;;;;;;17.97;6.60;;;;;;;;;;5013575;28;20026;-58
2024/01/22 02:59:27;;;;;;;14.98;6.82;;;;;;;;;;5025537;28;20021;-58
2024/01/22 03:01:52;;;;;;;15.63;6.47;;;;;;;;;;5030532;28;20033;-57
2024/01/22 03:04:17;;;;;;;14.43;6.13;;;;;;;;;;5017775;28;20441;-56
2024/01/22 03:06:43;;;;;;;15.00;6.43;;;;;;;;;;5017947;28;20551;-57
2024/01/22 03:09:09;;;;;;;15.03;6.60;;;;;;;;;;5030123;28;20033;-57
2024/01/22 03:11:34;;;;;;;18.85;7.20;;;;;;;;;;5021090;28;20105;-56
2024/01/22 03:13:59;;;;;;;15.23;7.27;;;;;;;;;;5022861;28;20079;-56
2024/01/22 03:16:24;;;;;;;16.07;6.80;;;;;;;;;;5033846;28;20030;-57
2024/01/22 03:18:49;;;;;;;14.43;6.55;;;;;;;;;;5034601;28;20503;-58
2024/01/22 03:21:15;;;;;;;15.93;6.65;;;;;;;;;;5032436;28;20029;-57
2024/01/22 03:23:40;;;;;;;15.60;7.23;;;;;;;;;;5030367;28;20033;-57
2024/01/22 03:26:05;;;;;;;15.45;6.72;;;;;;;;;;5034208;28;20037;-56
2024/01/22 03:28:30;;;;;;;16.17;6.60;;;;;;;;;;5031246;28;20389;-56
2024/01/22 03:30:55;;;;;;;16.00;7.13;;;;;;;;;;5030551;28;20059;-58
2024/01/22 03:33:21;;;;;;;14.10;6.93;;;;;;;;;;5031304;28;20017;-57
2024/01/22 03:35:46;;;;;;;15.33;6.40;;;;;;;;;;5033699;28;20080;-58
2024/01/22 03:38:11;;;;;;;15.80;6.57;;;;;;;;;;5030262;28;20758;-56
2024/01/22 03:40:36;;;;;;;17.10;7.03;;;;;;;;;;5013939;28;20026;-58
2024/01/22 03:43:01;;;;;;;13.77;6.70;;;;;;;;;;5028074;28;20091;-57
2024/01/22 03:45:26;;;;;;;15.00;6.35;;;;;;;;;;5024048;28;20026;-57
2024/01/22 03:47:52;;;;;;;16.97;7.47;;;;;;;;;;5031173;28;20112;-57
2024/01/22 03:50:17;;;;;;;14.43;6.25;;;;;;;;;;5032356;28;20024;-58
2024/01/22 03:52:42;;;;;;;14.50;6.68;;;;;;;;;;5022167;28;20049;-57
2024/01/22 03:55:09;;;;;;;14.90;6.27;;;;;;;;;;5013780;28;20026;-56
2024/01/22 03:57:34;;;;;;;13.90;6.28;;;;;;;;;;5022241;28;20120;-58
2024/01/22 04:00:01;;;;;;;13.70;6.18;;;;;;;;;;5031356;28;20041;-58
2024/01/22 04:02:27;;;;;;;14.80;6.40;;;;;;;;;;5035881;28;20075;-59
2024/01/22 04:04:53;;;;;;;12.90;6.10;;;;;;;;;;5039992;28;20171;-59
2024/01/22 04:07:18;;;;;;;13.77;6.03;;;;;;;;;;5046050;28;20033;-57
2024/01/22 04:09:45;;;;;;;14.00;6.37;;;;;;;;;;5037554;28;20020;-58
2024/01/22 04:12:11;;;;;;;13.27;5.82;;;;;;;;;;5036553;28;20448;-58
2024/01/22 04:14:36;;;;;;;13.57;6.18;;;;;;;;;;5041424;28;20017;-58
2024/01/22 04:17:01;;;;;;;13.02;5.80;;;;;;;;;;5045232;28;20026;-58
2024/01/22 04:19:26;;;;;;;14.23;6.18;;;;;;;;;;5035041;28;20417;-57
2024/01/22 04:21:51;;;;;;;11.57;5.57;;;;;;;;;;5029301;28;20022;-58
2024/01/22 04:24:17;;;;;;;14.00;7.15;;;;;;;;;;5031734;28;20045;-57
2024/01/22 04:26:42;;;;;;;17.08;7.00;;;;;;;;;;5033649;28;20511;-56
2024/01/22 04:29:07;;;;;;;13.43;6.60;;;;;;;;;;5032454;28;20020;-58
2024/01/22 04:31:32;;;;;;;15.67;6.70;;;;;;;;;;5036013;28;20039;-57
2024/01/22 04:33:57;;;;;;;15.77;6.77;;;;;;;;;;5038053;28;20021;-58
2024/01/22 04:36:23;;;;;;;14.60;6.75;;;;;;;;;;5040515;28;20029;-57
2024/01/22 04:38:48;;;;;;;16.77;7.03;;;;;;;;;;5033572;28;20108;-58
2024/01/22 04:41:14;;;;;;;15.20;7.30;;;;;;;;;;5020547;28;20049;-57
2024/01/22 04:43:39;;;;;;;14.90;6.00;;;;;;;;;;5024215;28;20037;-57
2024/01/22 04:46:04;;;;;;;14.48;6.55;;;;;;;;;;5038142;28;20476;-57
2024/01/22 04:48:30;;;;;;;15.82;6.25;;;;;;;;;;5053139;28;20700;-56
2024/01/22 04:50:55;;;;;;;15.25;6.40;;;;;;;;;;5053094;28;20032;-57
2024/01/22 04:53:20;;;;;;;13.52;6.53;;;;;;;;;;5044341;28;20029;-57
2024/01/22 04:55:45;;;;;;;13.00;6.18;;;;;;;;;;5032521;28;20505;-58
2024/01/22 04:58:10;;;;;;;13.43;6.13;;;;;;;;;;5033334;28;20030;-57
2024/01/22 05:00:35;;;;;;;14.77;6.07;;;;;;;;;;5034779;28;20022;-57
2024/01/22 05:03:04;;;;;;;13.50;6.17;;;;;;;;;;5032058;28;20033;-57
2024/01/22 05:05:29;;;;;;;14.32;6.13;;;;;;;;;;5034733;28;20020;-56
2024/01/22 05:07:54;;;;;;;15.37;6.43;;;;;;;;;;5033890;28;20132;-57
2024/01/22 05:10:20;;;;;;;16.67;6.10;;;;;;;;;;5035225;28;20465;-61
2024/01/22 05:12:45;;;;;;;16.60;6.45;;;;;;;;;;5026296;28;20022;-57
2024/01/22 05:15:13;;;;;;;17.03;6.33;;;;;;;;;;5034307;28;20067;-58
2024/01/22 05:17:38;;;;;;;13.27;6.03;;;;;;;;;;5034659;28;20014;-57
2024/01/22 05:20:04;;;;;;;14.43;6.28;;;;;;;;;;5036556;28;20085;-57
2024/01/22 05:22:29;;;;;;;14.50;6.40;;;;;;;;;;5030847;28;20021;-56
2024/01/22 05:24:54;;;;;;;14.50;6.10;;;;;;;;;;5032939;28;20056;-57
2024/01/22 05:27:19;;;;;;;13.07;6.10;;;;;;;;;;5035054;28;20040;-57
2024/01/22 05:29:44;;;;;;;13.43;6.40;;;;;;;;;;5028455;28;20022;-57
2024/01/22 05:32:10;;;;;;;14.13;6.22;;;;;;;;;;5024911;28;20041;-59
2024/01/22 05:34:35;;;;;;;14.18;6.00;;;;;;;;;;5027221;28;20536;-57
2024/01/22 05:37:00;;;;;;;11.95;5.40;;;;;;;;;;5030958;28;20075;-56
2024/01/22 05:39:27;;;;;;;19.60;6.53;;;;;;;;;;5016884;28;20026;-57
2024/01/22 05:41:52;;;;;;;15.23;6.55;;;;;;;;;;5025595;28;20021;-57
2024/01/22 05:44:17;;;;;;;16.10;5.97;;;;;;;;;;5030332;28;20063;-57
2024/01/22 05:46:43;;;;;;;13.52;5.45;;;;;;;;;;5027325;28;20877;-57
2024/01/22 05:49:08;;;;;;;14.33;6.30;;;;;;;;;;5027113;28;20022;-57
2024/01/22 05:51:33;;;;;;;12.52;5.70;;;;;;;;;;5026855;28;20025;-57
2024/01/22 05:53:59;;;;;;;13.67;6.47;;;;;;;;;;5026664;28;20013;-57
2024/01/22 05:56:28;;;;;;;14.02;5.95;;;;;;;;;;5014814;28;20095;-57
2024/01/22 05:58:53;;;;;;;13.35;5.70;;;;;;;;;;5029079;28;20481;-56
2024/01/22 06:01:22;;;;;;;15.48;6.22;;;;;;;;;;5028146;28;20033;-57
2024/01/22 06:03:47;;;;;;;15.30;6.40;;;;;;;;;;5026906;28;20028;-57
2024/01/22 06:06:14;;;;;;;13.38;5.82;;;;;;;;;;5028117;28;20041;-58
2024/01/22 06:08:42;;;;;;;12.60;5.38;;;;;;;;;;5031441;28;20029;-57
2024/01/22 06:11:08;;;;;;;14.77;5.60;;;;;;;;;;5021038;28;20378;-58
2024/01/22 06:13:38;;;;;;;15.20;6.50;;;;;;;;;;5032319;28;20032;-57
2024/01/22 06:16:04;;;;;;;14.48;6.05;;;;;;;;;;5033808;28;20385;-57
2024/01/22 06:18:29;;;;;;;11.48;5.40;;;;;;;;;;5022814;28;20021;-57
2024/01/22 06:20:54;;;;;;;15.13;6.40;;;;;;;;;;5025390;28;20087;-57
2024/01/22 06:23:19;;;;;;;12.32;6.18;;;;;;;;;;5032637;28;20029;-58
2024/01/22 06:25:44;;;;;;;14.13;6.25;;;;;;;;;;5034925;28;20041;-57
2024/01/22 06:28:09;;;;;;;15.68;6.22;;;;;;;;;;5034134;28;20064;-57
2024/01/22 06:30:35;;;;;;;15.30;5.93;;;;;;;;;;5033938;28;20374;-58
2024/01/22 06:33:00;;;;;;;11.77;5.07;;;;;;;;;;5033481;28;20021;-57
2024/01/22 06:35:25;;;;;;;12.38;5.80;;;;;;;;;;5030190;28;20177;-58
2024/01/22 06:37:50;;;;;;;19.10;6.20;;;;;;;;;;5036632;28;20068;-56
2024/01/22 06:40:17;;;;;;;12.32;5.80;;;;;;;;;;5031872;28;20417;-57
2024/01/22 06:42:43;;;;;;;13.20;5.90;;;;;;;;;;5034209;28;20057;-57
2024/01/22 06:45:09;;;;;;;11.95;5.30;;;;;;;;;;5040243;28;20040;-57
2024/01/22 06:47:34;;;;;;;15.00;5.30;;;;;;;;;;5043573;28;20030;-58
2024/01/22 06:49:59;;;;;;;14.53;5.63;;;;;;;;;;5040012;28;20028;-55
2024/01/22 06:52:24;;;;;;;10.77;4.72;;;;;;;;;;5047351;28;20061;-56
2024/01/22 06:54:49;;;;;;;12.40;5.60;;;;;;;;;;5052424;28;20028;-56
2024/01/22 06:57:14;;;;;;;12.70;5.28;;;;;;;;;;5046547;28;20040;-56
2024/01/22 06:59:40;;;;;;;12.10;5.03;;;;;;;;;;5038261;28;20026;-58
2024/01/22 07:02:05;;;;;;;13.63;5.50;;;;;;;;;;5037061;28;20029;-56
2024/01/22 07:04:31;;;;;;;9.60;4.50;;;;;;;;;;5039132;28;20055;-57
2024/01/22 07:06:56;;;;;;;12.73;4.47;;;;;;;;;;5040592;28;20124;-56
2024/01/22 07:09:21;;;;;;;12.18;4.90;;;;;;;;;;5039625;28;20523;-57
2024/01/22 07:11:46;;;;;;;12.00;5.27;;;;;;;;;;5039723;28;20052;-59
2024/01/22 07:14:12;;;;;;;12.53;5.23;;;;;;;;;;5042308;28;20068;-57
2024/01/22 07:16:37;;;;;;;12.23;5.43;;;;;;;;;;5040954;28;20014;-56
2024/01/22 07:19:02;;;;;;;13.10;5.00;;;;;;;;;;5044333;28;20081;-58
2024/01/22 07:21:27;;;;;;;10.80;4.75;;;;;;;;;;5041953;28;20029;-56
2024/01/22 07:23:53;;;;;;;10.57;5.00;;;;;;;;;;5040151;28;20029;-57
2024/01/22 07:26:18;;;;;;;12.98;5.03;;;;;;;;;;5040172;28;20021;-57
2024/01/22 07:28:43;;;;;;;11.73;5.03;;;;;;;;;;5034377;28;20079;-57
2024/01/22 07:31:08;;;;;;;13.70;4.88;;;;;;;;;;5036542;28;20034;-57
2024/01/22 07:33:33;;;;;;;10.43;4.70;;;;;;;;;;5033746;28;20021;-57
2024/01/22 07:35:58;;;;;;;10.77;4.55;;;;;;;;;;5036436;28;20029;-57
2024/01/22 07:38:24;;;;;;;10.43;4.82;;;;;;;;;;5030883;28;20025;-56
2024/01/22 07:40:50;;;;;;;7.85;3.85;;;;;;;;;;5036100;28;20025;-57
2024/01/22 07:43:15;;;;;;;12.55;4.38;;;;;;;;;;5035142;28;20025;-56
2024/01/22 07:45:41;;;;;;;10.30;4.53;;;;;;;;;;5034915;28;20064;-57
2024/01/22 07:48:06;;;;;;;10.77;3.93;;;;;;;;;;5032507;28;20072;-56
2024/01/22 07:50:31;;;;;;;9.75;3.85;;;;;;;;;;5041432;28;20029;-56
2024/01/22 07:52:56;;;;;;;10.90;4.00;;;;;;;;;;5054362;28;20025;-57
2024/01/22 07:55:21;;;;;;;9.95;4.50;;;;;;;;;;5030871;28;20021;-57
2024/01/22 07:57:47;;;;;;;10.27;4.30;;;;;;;;;;5027937;28;20022;-56
2024/01/22 08:00:12;;;;;;;10.50;4.37;;;;;;;;;;5030081;28;20017;-56
2024/01/22 08:02:39;;;;;;;10.95;3.67;;;;;;;;;;5031520;28;20031;-56
2024/01/22 08:05:05;;;;;;;9.88;4.10;;;;;;;;;;5034836;28;20017;-58
2024/01/22 08:07:30;;;;;;;10.15;3.75;;;;;;;;;;5038114;28;20036;-57
2024/01/22 08:09:55;;;;;;;9.55;3.63;;;;;;;;;;5034334;28;20024;-57
2024/01/22 08:12:20;;;;;;;7.78;3.55;;;;;;;;;;5025949;28;20120;-58
2024/01/22 08:14:45;;;;;;;8.80;3.90;;;;;;;;;;5030774;28;20014;-56
2024/01/22 08:17:11;;;;;;;8.23;3.20;;;;;;;;;;5024421;28;20032;-57
2024/01/22 08:19:36;;;;;;;8.55;3.65;;;;;;;;;;5028619;28;20018;-56
2024/01/22 08:22:02;;;;;;;8.93;3.40;;;;;;;;;;5032801;28;20020;-57
2024/01/22 08:24:27;;;;;;;9.02;3.47;;;;;;;;;;5032457;28;20056;-57
2024/01/22 08:26:52;;;;;;;9.17;3.60;;;;;;;;;;5032810;28;20116;-57
2024/01/22 08:29:18;;;;;;;10.10;3.20;;;;;;;;;;5030348;28;20049;-57
2024/01/22 08:31:43;;;;;;;7.57;3.00;;;;;;;;;;5027556;28;20040;-56
2024/01/22 08:34:08;;;;;;;7.17;2.93;;;;;;;;;;5024420;28;20025;-56
2024/01/22 08:36:33;;;;;;;8.03;3.10;;;;;;;;;;5031837;28;20032;-58
2024/01/22 08:38:58;;;;;;;8.13;3.30;;;;;;;;;;5038404;28;20505;-57
2024/01/22 08:41:27;;;;;;;6.73;2.80;;;;;;;;;;5040730;28;20108;-58
2024/01/22 08:43:56;;;;;;;10.07;2.83;;;;;;;;;;5044282;28;20029;-57
2024/01/22 08:46:21;;;;;;;7.03;3.22;;;;;;;;;;5036384;28;20474;-58
2024/01/22 08:48:46;;;;;;;6.53;2.60;;;;;;;;;;5029344;28;20075;-59
2024/01/22 08:51:11;;;;;;;6.50;2.90;;;;;;;;;;5031696;28;20052;-57
2024/01/22 08:53:37;;;;;;;7.28;2.95;;;;;;;;;;5031986;28;20079;-57
2024/01/22 08:56:02;;;;;;;8.55;2.78;;;;;;;;;;5032628;28;20018;-59
2024/01/22 08:58:27;;;;;;;6.10;2.50;;;;;;;;;;5031878;28;20442;-57
2024/01/22 09:00:52;;;;;;;6.93;2.80;;;;;;;;;;5031984;28;20497;-58
2024/01/22 09:03:19;;;;;;;7.17;2.50;;;;;;;;;;5032686;28;20400;-57
2024/01/22 09:05:44;;;;;;;8.70;3.22;;;;;;;;;;5033066;28;20091;-56
2024/01/22 09:08:09;;;;;;;9.83;3.40;;;;;;;;;;5032609;28;20470;-57
2024/01/22 09:10:35;;;;;;;10.80;3.53;;;;;;;;;;5031515;28;20053;-58
2024/01/22 09:13:00;;;;;;;8.32;3.03;;;;;;;;;;5028200;28;20017;-57
2024/01/22 09:15:25;;;;;;;7.68;2.85;;;;;;;;;;5030785;28;20528;-58
2024/01/22 09:17:50;;;;;;;6.50;2.60;;;;;;;;;;5031880;28;20041;-57
2024/01/22 09:20:16;;;;;;;8.57;3.28;;;;;;;;;;5032729;28;20029;-56
2024/01/22 09:22:41;;;;;;;11.70;3.43;;;;;;;;;;5031889;28;20044;-59
2024/01/22 09:25:07;;;;;;;8.67;3.37;;;;;;;;;;5031804;28;20512;-58
2024/01/22 09:27:33;;;;;;;10.00;3.72;;;;;;;;;;5028376;28;20018;-57
2024/01/22 09:30:01;;;;;;;7.13;3.13;;;;;;;;;;5026761;28;20032;-58
2024/01/22 09:32:26;;;;;;;9.68;3.40;;;;;;;;;;5029804;28;20616;-57
2024/01/22 09:34:51;;;;;;;10.25;3.60;;;;;;;;;;5030777;28;20021;-57
2024/01/22 09:37:16;;;;;;;9.23;3.13;;;;;;;;;;5031386;28;20420;-57
2024/01/22 09:39:44;;;;;;;8.40;3.53;;;;;;;;;;5029991;28;20071;-64
2024/01/22 09:42:10;;;;;;;7.72;3.15;;;;;;;;;;5030754;28;20021;-60
2024/01/22 09:44:35;;;;;;;8.57;2.80;;;;;;;;;;5029476;28;20064;-58
2024/01/22 09:47:02;;;;;;;7.78;2.95;;;;;;;;;;5031013;28;20068;-57
2024/01/22 09:49:27;;;;;;;10.07;3.30;;;;;;;;;;5031555;28;20025;-57
2024/01/22 09:51:53;;;;;;;7.10;2.40;;;;;;;;;;5030858;28;20366;-56
2024/01/22 09:54:18;;;;;;;7.20;2.75;;;;;;;;;;5030980;28;20780;-56
2024/01/22 09:56:51;;;;;;;6.63;2.45;;;;;;;;;;5031146;28;20375;-58
2024/01/22 09:59:18;;;;;;;9.70;2.92;;;;;;;;;;5030176;28;20029;-58
2024/01/22 10:01:45;;;;;;;7.28;2.70;;;;;;;;;;5030379;28;20100;-56
2024/01/22 10:04:11;;;;;;;7.20;2.50;;;;;;;;;;5032948;28;20076;-55
2024/01/22 10:06:36;;;;;;;7.07;2.80;;;;;;;;;;5032092;28;20507;-57
2024/01/22 10:09:02;;;;;;;6.80;2.43;;;;;;;;;;5032207;28;20015;-57
2024/01/22 10:11:27;;;;;;;10.27;2.55;;;;;;;;;;5031753;28;20428;-56
2024/01/22 10:13:53;;;;;;;7.30;2.70;;;;;;;;;;5029483;28;20243;-56
2024/01/22 10:16:18;;;;;;;7.45;2.80;;;;;;;;;;5030040;28;20021;-56
2024/01/22 10:18:57;;;;;;;8.10;2.72;;;;;;;;;;5030814;28;20502;-58
2024/01/22 10:21:22;;;;;;;9.43;2.95;;;;;;;;;;5031407;28;20028;-58
2024/01/22 10:23:57;;;;;;;6.93;2.60;;;;;;;;;;5037922;28;20089;-56
2024/01/22 10:26:22;;;;;;;8.50;2.58;;;;;;;;;;5036794;28;20480;-58
2024/01/22 10:28:47;;;;;;;8.40;2.70;;;;;;;;;;5045298;28;20010;-57
2024/01/22 10:31:13;;;;;;;7.40;2.97;;;;;;;;;;5042516;28;20025;-56
2024/01/22 10:33:38;;;;;;;8.80;2.60;;;;;;;;;;5034608;28;20028;-55
2024/01/22 10:36:16;;;;;;;7.37;2.60;;;;;;;;;;5036188;28;20037;-57
2024/01/22 10:38:41;;;;;;;;;;;;;;;;;;5035790;28;20508;-58
2024/01/22 10:41:18;;;;;;;6.85;2.50;;;;;;;;;;5032384;28;19999;-57
2024/01/22 10:43:44;;;;;;;8.45;2.55;;;;;;;;;;5028413;28;20076;-56
2024/01/22 10:46:10;;;;;;;7.45;2.70;;;;;;;;;;5033520;28;20414;-57
2024/01/22 10:48:36;;;;;;;7.78;2.85;;;;;;;;;;5031690;28;20073;-57
2024/01/22 10:51:01;;;;;;;11.18;3.50;;;;;;;;;;5031081;28;20076;-56
2024/01/22 10:53:27;;;;;;;8.85;2.67;;;;;;;;;;5033503;28;20079;-57
2024/01/22 10:56:09;;;;;;;9.15;3.35;;;;;;;;;;5033859;28;20426;-56
2024/01/22 10:58:44;;;;;;;9.40;3.25;;;;;;;;;;5033970;28;20400;-56
2024/01/22 11:01:16;;;;;;;9.25;3.17;;;;;;;;;;5026711;28;20393;-57
2024/01/22 11:03:46;;;;;;;7.25;2.78;;;;;;;;;;5031809;28;20037;-57
2024/01/22 11:06:13;;;;;;;7.60;2.75;;;;;;;;;;5014815;28;20508;-56
2024/01/22 11:08:38;;;;;;;;;;;;;;;;;;5015094;28;20397;-57
2024/01/22 11:11:04;;;;;;;7.50;3.10;;;;;;;;;;5014161;28;19917;-57
2024/01/22 11:13:29;;;;;;;8.65;3.10;;;;;;;;;;5032709;28;20033;-57
2024/01/22 11:15:55;;;;;;;7.97;3.15;;;;;;;;;;5033516;28;20347;-56
2024/01/22 11:18:20;;;;;;;7.35;3.40;;;;;;;;;;5031444;28;20033;-56
2024/01/22 11:20:45;;;;;;;9.73;3.43;;;;;;;;;;5033878;28;20079;-56
2024/01/22 11:23:15;;;;;;;9.48;3.33;;;;;;;;;;5033650;28;20036;-57
2024/01/22 11:25:40;;;;;;;7.95;3.13;;;;;;;;;;5035149;28;20033;-56
2024/01/22 11:28:10;;;;;;;7.43;3.23;;;;;;;;;;5033985;28;20029;-56
2024/01/22 11:30:36;;;;;;;7.38;3.25;;;;;;;;;;5028070;28;20473;-56
2024/01/22 11:33:01;;;;;;;9.68;2.97;;;;;;;;;;5032344;28;20029;-57
2024/01/22 11:35:37;;;;;;;7.97;3.13;;;;;;;;;;5032814;28;20030;-57
2024/01/22 11:38:03;;;;;;;9.13;3.03;;;;;;;;;;5043907;28;20017;-56
2024/01/22 11:40:47;;;;;;;8.40;2.85;;;;;;;;;;5051205;28;20073;-56
2024/01/22 11:43:13;;;;;;;8.27;3.10;;;;;;;;;;5047757;28;20018;-61
2024/01/22 11:45:38;;;;;;;8.98;3.05;;;;;;;;;;5036362;28;20461;-57
2024/01/22 11:48:13;;;;;;;8.88;3.20;;;;;;;;;;5034249;28;20048;-58
2024/01/22 11:50:38;;;;;;;7.05;2.95;;;;;;;;;;5033483;28;20029;-56
2024/01/22 11:53:03;;;;;;;7.88;2.90;;;;;;;;;;5032884;28;20017;-56
2024/01/22 11:55:28;;;;;;;6.95;2.65;;;;;;;;;;5033413;28;20048;-55
2024/01/22 11:57:54;;;;;;;7.32;2.78;;;;;;;;;;5032928;28;20041;-57
2024/01/22 12:00:20;;;;;;;7.38;2.97;;;;;;;;;;5032952;28;20029;-56
2024/01/22 12:02:50;;;;;;;7.55;2.90;;;;;;;;;;5031641;28;20029;-58
2024/01/22 12:05:18;;;;;;;9.07;2.75;;;;;;;;;;5032422;28;20430;-57
2024/01/22 12:07:47;;;;;;;6.78;2.60;;;;;;;;;;5033498;28;20030;-56
2024/01/22 12:10:23;;;;;;;6.95;2.67;;;;;;;;;;5033464;28;20025;-57
2024/01/22 12:12:49;;;;;;;7.05;2.55;;;;;;;;;;5032085;28;20573;-57
2024/01/22 12:15:14;;;;;;;7.28;2.60;;;;;;;;;;5034449;28;20473;-56
2024/01/22 12:17:42;;;;;;;8.93;2.70;;;;;;;;;;5040570;28;20033;-57
2024/01/22 12:20:08;;;;;;;5.38;2.28;;;;;;;;;;5041971;28;20021;-57
2024/01/22 12:22:33;;;;;;;7.00;2.63;;;;;;;;;;5040118;28;20036;-56
2024/01/22 12:25:06;;;;;;;6.60;2.50;;;;;;;;;;5037740;28;20528;-57
2024/01/22 12:27:31;;;;;;;7.85;2.75;;;;;;;;;;5031697;28;20033;-57
2024/01/22 12:30:03;;;;;;;7.97;2.90;;;;;;;;;;5029395;28;20080;-56
2024/01/22 12:32:28;;;;;;;5.93;2.30;;;;;;;;;;5028531;28;20464;-56
2024/01/22 12:34:56;;;;;;;5.43;2.43;;;;;;;;;;5030447;28;20024;-56
2024/01/22 12:37:23;;;;;;;7.38;2.50;;;;;;;;;;5030659;28;20100;-57
2024/01/22 12:39:48;;;;;;;5.68;2.22;;;;;;;;;;5032391;28;20079;-56
2024/01/22 12:42:18;;;;;;;6.20;2.63;;;;;;;;;;5030679;28;20033;-58
2024/01/22 12:44:54;;;;;;;7.25;2.40;;;;;;;;;;5031001;28;20034;-56
2024/01/22 12:47:19;;;;;;;7.90;2.60;;;;;;;;;;5032600;28;20033;-56
2024/01/22 12:49:44;;;;;;;6.22;2.20;;;;;;;;;;5030640;28;20551;-57
2024/01/22 12:52:10;;;;;;;6.13;2.03;;;;;;;;;;5032318;28;20053;-57
2024/01/22 12:54:35;;;;;;;7.65;2.63;;;;;;;;;;5032967;28;20021;-57
2024/01/22 12:57:00;;;;;;;7.63;2.13;;;;;;;;;;5033062;28;20079;-57
2024/01/22 12:59:26;;;;;;;5.65;1.90;;;;;;;;;;5027614;28;20041;-57
2024/01/22 13:01:51;;;;;;;5.88;1.80;;;;;;;;;;5032387;28;20478;-57
2024/01/22 13:04:16;;;;;;;5.13;1.70;;;;;;;;;;5031628;28;20033;-56
2024/01/22 13:06:42;;;;;;;6.57;1.70;;;;;;;;;;5032451;28;20421;-57
2024/01/22 13:09:07;;;;;;;4.93;2.00;;;;;;;;;;5031748;28;20057;-56
2024/01/22 13:11:32;;;;;;;5.38;2.08;;;;;;;;;;5030840;28;20021;-56
2024/01/22 13:13:57;;;;;;;6.53;1.80;;;;;;;;;;5030954;28;20051;-55
2024/01/22 13:16:22;;;;;;;5.67;1.93;;;;;;;;;;5030993;28;20025;-56
2024/01/22 13:18:48;;;;;;;5.53;1.83;;;;;;;;;;5032186;28;20060;-57
2024/01/22 13:21:15;;;;;;;6.65;2.25;;;;;;;;;;5030631;28;20060;-56
2024/01/22 13:23:40;;;;;;;5.15;1.70;;;;;;;;;;5031729;28;20033;-56
2024/01/22 13:26:08;;;;;;;7.07;1.85;;;;;;;;;;5030801;28;20474;-56
2024/01/22 13:28:35;;;;;;;4.60;1.60;;;;;;;;;;5030448;28;20154;-57
2024/01/22 13:31:00;;;;;;;6.22;1.50;;;;;;;;;;5027154;28;20029;-57
2024/01/22 13:33:26;;;;;;;6.75;1.33;;;;;;;;;;5033159;28;20028;-56
2024/01/22 13:35:51;;;;;;;3.90;1.03;;;;;;;;;;5032979;28;20021;-57
2024/01/22 13:38:16;;;;;;;3.13;0.90;;;;;;;;;;5036021;28;20029;-57
2024/01/22 13:40:41;;;;;;;2.95;0.70;;;;;;;;;;5048892;28;20021;-57
2024/01/22 13:43:06;;;;;;;2.92;0.70;;;;;;;;;;5050661;28;20029;-58
2024/01/22 13:45:31;;;;;;;2.72;0.70;;;;;;;;;;5052293;28;20029;-57
2024/01/22 13:47:57;;;;;;;3.45;0.90;;;;;;;;;;5037698;28;20095;-56
2024/01/22 13:50:22;;;;;;;2.60;0.70;;;;;;;;;;5031806;28;20022;-57
2024/01/22 13:52:47;;;;;;;2.37;0.70;;;;;;;;;;5031616;28;20041;-57
2024/01/22 13:55:12;;;;;;;3.33;0.80;;;;;;;;;;5032288;28;20472;-56
2024/01/22 13:57:37;;;;;;;5.23;1.27;;;;;;;;;;5030847;28;20068;-57
2024/01/22 14:00:03;;;;;;;6.50;2.42;;;;;;;;;;5030190;28;20013;-57
2024/01/22 14:02:28;;;;;;;6.60;2.25;;;;;;;;;;5031748;28;20369;-57
2024/01/22 14:04:53;;;;;;;9.20;3.50;;;;;;;;;;5031726;28;20013;-58
2024/01/22 14:07:18;;;;;;;9.00;3.30;;;;;;;;;;5031688;28;20132;-57
2024/01/22 14:09:44;;;;;;;8.43;3.13;;;;;;;;;;5032210;28;20082;-56
2024/01/22 14:12:09;;;;;;;9.77;3.40;;;;;;;;;;5030487;28;20026;-56
2024/01/22 14:14:34;;;;;;;9.50;3.57;;;;;;;;;;5028876;28;20025;-57
2024/01/22 14:17:00;;;;;;;7.00;3.20;;;;;;;;;;5031254;28;20024;-57
2024/01/22 14:19:25;;;;;;;10.37;3.60;;;;;;;;;;5030095;28;20051;-57
2024/01/22 14:21:50;;;;;;;8.52;2.80;;;;;;;;;;5031028;28;20017;-58
2024/01/22 14:24:15;;;;;;;7.37;3.20;;;;;;;;;;5030445;28;20021;-57
2024/01/22 14:26:40;;;;;;;9.05;3.10;;;;;;;;;;5022901;28;20017;-58